sensor_id;sensor_type;location;lat;lon;timestamp;P1;durP1;ratioP1;P2;durP2;ratioP2
70547;SDS011;58099;43.406;3.698;2022-07-09T00:00:11;5.65;;;1.45;;
70547;SDS011;58099;43.406;3.698;2022-07-09T00:02:37;3.97;;;1.33;;
70547;SDS011;58099;43.406;3.698;2022-07-09T00:05:03;4.85;;;1.48;;
70547;SDS011;58099;43.406;3.698;2022-07-09T00:07:29;5.22;;;1.20;;
70547;SDS011;58099;43.406;3.698;2022-07-09T00:09:55;5.05;;;1.40;;
70547;SDS011;58099;43.406;3.698;2022-07-09T00:12:21;3.15;;;1.27;;
70547;SDS011;58099;43.406;3.698;2022-07-09T00:14:46;3.77;;;0.90;;
70547;SDS011;58099;43.406;3.698;2022-07-09T00:17:12;3.92;;;0.80;;
70547;SDS011;58099;43.406;3.698;2022-07-09T00:19:38;4.35;;;1.08;;
70547;SDS011;58099;43.406;3.698;2022-07-09T00:22:04;3.27;;;0.90;;
70547;SDS011;58099;43.406;3.698;2022-07-09T00:24:30;4.20;;;0.95;;
70547;SDS011;58099;43.406;3.698;2022-07-09T00:26:56;4.25;;;1.30;;
70547;SDS011;58099;43.406;3.698;2022-07-09T00:29:22;4.83;;;1.30;;
70547;SDS011;58099;43.406;3.698;2022-07-09T00:31:48;4.05;;;1.13;;
70547;SDS011;58099;43.406;3.698;2022-07-09T00:34:14;4.37;;;1.20;;
70547;SDS011;58099;43.406;3.698;2022-07-09T00:36:39;2.72;;;1.20;;
70547;SDS011;58099;43.406;3.698;2022-07-09T00:39:05;3.80;;;1.10;;
70547;SDS011;58099;43.406;3.698;2022-07-09T00:41:31;5.15;;;1.38;;
70547;SDS011;58099;43.406;3.698;2022-07-09T00:43:56;3.90;;;1.43;;
70547;SDS011;58099;43.406;3.698;2022-07-09T00:46:22;3.47;;;1.30;;
70547;SDS011;58099;43.406;3.698;2022-07-09T00:48:48;4.13;;;1.42;;
70547;SDS011;58099;43.406;3.698;2022-07-09T00:51:14;4.30;;;1.00;;
70547;SDS011;58099;43.406;3.698;2022-07-09T00:53:42;3.10;;;0.90;;
70547;SDS011;58099;43.406;3.698;2022-07-09T00:56:10;3.50;;;1.20;;
70547;SDS011;58099;43.406;3.698;2022-07-09T00:58:37;2.88;;;0.95;;
70547;SDS011;58099;43.406;3.698;2022-07-09T01:01:06;4.65;;;1.33;;
70547;SDS011;58099;43.406;3.698;2022-07-09T01:03:31;5.90;;;1.40;;
70547;SDS011;58099;43.406;3.698;2022-07-09T01:05:57;3.38;;;0.95;;
70547;SDS011;58099;43.406;3.698;2022-07-09T01:08:24;5.32;;;1.15;;
70547;SDS011;58099;43.406;3.698;2022-07-09T01:10:50;3.33;;;1.40;;
70547;SDS011;58099;43.406;3.698;2022-07-09T01:13:18;3.65;;;1.00;;
70547;SDS011;58099;43.406;3.698;2022-07-09T01:15:44;5.13;;;1.42;;
70547;SDS011;58099;43.406;3.698;2022-07-09T01:18:12;3.43;;;1.27;;
70547;SDS011;58099;43.406;3.698;2022-07-09T01:20:39;6.32;;;1.30;;
70547;SDS011;58099;43.406;3.698;2022-07-09T01:23:05;4.68;;;1.40;;
70547;SDS011;58099;43.406;3.698;2022-07-09T01:25:34;4.53;;;1.13;;
70547;SDS011;58099;43.406;3.698;2022-07-09T01:28:04;4.43;;;1.23;;
70547;SDS011;58099;43.406;3.698;2022-07-09T01:30:32;4.03;;;1.02;;
70547;SDS011;58099;43.406;3.698;2022-07-09T01:32:58;3.30;;;1.13;;
70547;SDS011;58099;43.406;3.698;2022-07-09T01:35:25;3.30;;;0.90;;
70547;SDS011;58099;43.406;3.698;2022-07-09T01:37:51;3.55;;;1.02;;
70547;SDS011;58099;43.406;3.698;2022-07-09T01:40:18;2.92;;;1.00;;
70547;SDS011;58099;43.406;3.698;2022-07-09T01:42:44;3.38;;;1.10;;
70547;SDS011;58099;43.406;3.698;2022-07-09T01:45:11;2.95;;;1.20;;
70547;SDS011;58099;43.406;3.698;2022-07-09T01:47:37;4.30;;;0.90;;
70547;SDS011;58099;43.406;3.698;2022-07-09T01:50:03;4.47;;;0.90;;
70547;SDS011;58099;43.406;3.698;2022-07-09T01:52:29;3.20;;;1.00;;
70547;SDS011;58099;43.406;3.698;2022-07-09T01:54:55;4.90;;;0.77;;
70547;SDS011;58099;43.406;3.698;2022-07-09T01:57:21;4.05;;;1.20;;
70547;SDS011;58099;43.406;3.698;2022-07-09T01:59:47;3.40;;;0.87;;
70547;SDS011;58099;43.406;3.698;2022-07-09T02:02:13;2.88;;;1.02;;
70547;SDS011;58099;43.406;3.698;2022-07-09T02:04:38;3.30;;;1.10;;
70547;SDS011;58099;43.406;3.698;2022-07-09T02:07:04;4.20;;;0.93;;
70547;SDS011;58099;43.406;3.698;2022-07-09T02:09:30;3.38;;;0.98;;
70547;SDS011;58099;43.406;3.698;2022-07-09T02:11:56;3.73;;;0.70;;
70547;SDS011;58099;43.406;3.698;2022-07-09T02:14:21;3.67;;;0.88;;
70547;SDS011;58099;43.406;3.698;2022-07-09T02:16:47;4.50;;;0.90;;
70547;SDS011;58099;43.406;3.698;2022-07-09T02:19:13;3.50;;;0.85;;
70547;SDS011;58099;43.406;3.698;2022-07-09T02:21:40;3.08;;;0.70;;
70547;SDS011;58099;43.406;3.698;2022-07-09T02:24:06;3.80;;;0.80;;
70547;SDS011;58099;43.406;3.698;2022-07-09T02:26:32;2.72;;;0.80;;
70547;SDS011;58099;43.406;3.698;2022-07-09T02:28:58;3.72;;;1.05;;
70547;SDS011;58099;43.406;3.698;2022-07-09T02:31:26;3.58;;;0.80;;
70547;SDS011;58099;43.406;3.698;2022-07-09T02:33:52;3.33;;;1.02;;
70547;SDS011;58099;43.406;3.698;2022-07-09T02:36:18;4.30;;;1.10;;
70547;SDS011;58099;43.406;3.698;2022-07-09T02:38:44;5.05;;;1.10;;
70547;SDS011;58099;43.406;3.698;2022-07-09T02:41:10;4.50;;;1.10;;
70547;SDS011;58099;43.406;3.698;2022-07-09T02:43:36;3.80;;;1.00;;
70547;SDS011;58099;43.406;3.698;2022-07-09T02:46:02;3.47;;;1.10;;
70547;SDS011;58099;43.406;3.698;2022-07-09T02:48:29;3.95;;;0.90;;
70547;SDS011;58099;43.406;3.698;2022-07-09T02:50:55;3.40;;;0.83;;
70547;SDS011;58099;43.406;3.698;2022-07-09T02:53:21;3.75;;;1.25;;
70547;SDS011;58099;43.406;3.698;2022-07-09T02:55:47;5.60;;;1.15;;
70547;SDS011;58099;43.406;3.698;2022-07-09T02:58:13;5.00;;;1.13;;
70547;SDS011;58099;43.406;3.698;2022-07-09T03:00:39;5.10;;;1.17;;
70547;SDS011;58099;43.406;3.698;2022-07-09T03:03:05;4.00;;;1.25;;
70547;SDS011;58099;43.406;3.698;2022-07-09T03:05:32;3.45;;;0.98;;
70547;SDS011;58099;43.406;3.698;2022-07-09T03:07:57;5.73;;;1.30;;
70547;SDS011;58099;43.406;3.698;2022-07-09T03:10:23;3.00;;;1.02;;
70547;SDS011;58099;43.406;3.698;2022-07-09T03:12:49;3.30;;;1.00;;
70547;SDS011;58099;43.406;3.698;2022-07-09T03:15:15;3.80;;;0.90;;
70547;SDS011;58099;43.406;3.698;2022-07-09T03:17:45;3.70;;;0.90;;
70547;SDS011;58099;43.406;3.698;2022-07-09T03:20:11;3.60;;;1.30;;
70547;SDS011;58099;43.406;3.698;2022-07-09T03:22:38;3.90;;;1.08;;
70547;SDS011;58099;43.406;3.698;2022-07-09T03:25:04;4.77;;;1.10;;
70547;SDS011;58099;43.406;3.698;2022-07-09T03:27:30;4.82;;;1.10;;
70547;SDS011;58099;43.406;3.698;2022-07-09T03:29:57;3.20;;;0.95;;
70547;SDS011;58099;43.406;3.698;2022-07-09T03:32:23;4.05;;;1.60;;
70547;SDS011;58099;43.406;3.698;2022-07-09T03:34:49;4.67;;;1.50;;
70547;SDS011;58099;43.406;3.698;2022-07-09T03:37:15;5.22;;;1.40;;
70547;SDS011;58099;43.406;3.698;2022-07-09T03:39:40;4.30;;;1.10;;
70547;SDS011;58099;43.406;3.698;2022-07-09T03:42:06;3.95;;;1.25;;
70547;SDS011;58099;43.406;3.698;2022-07-09T03:44:34;4.07;;;1.27;;
70547;SDS011;58099;43.406;3.698;2022-07-09T03:47:00;5.80;;;1.02;;
70547;SDS011;58099;43.406;3.698;2022-07-09T03:49:26;3.95;;;1.05;;
70547;SDS011;58099;43.406;3.698;2022-07-09T03:51:52;3.72;;;0.88;;
70547;SDS011;58099;43.406;3.698;2022-07-09T03:54:18;5.30;;;1.20;;
70547;SDS011;58099;43.406;3.698;2022-07-09T03:56:44;4.18;;;0.98;;
70547;SDS011;58099;43.406;3.698;2022-07-09T03:59:10;3.63;;;0.90;;
70547;SDS011;58099;43.406;3.698;2022-07-09T04:01:36;3.30;;;1.00;;
70547;SDS011;58099;43.406;3.698;2022-07-09T04:04:02;4.38;;;1.40;;
70547;SDS011;58099;43.406;3.698;2022-07-09T04:06:29;3.17;;;1.20;;
70547;SDS011;58099;43.406;3.698;2022-07-09T04:08:55;4.55;;;1.45;;
70547;SDS011;58099;43.406;3.698;2022-07-09T04:11:21;5.65;;;1.38;;
70547;SDS011;58099;43.406;3.698;2022-07-09T04:13:46;5.53;;;1.50;;
70547;SDS011;58099;43.406;3.698;2022-07-09T04:16:12;3.57;;;1.17;;
70547;SDS011;58099;43.406;3.698;2022-07-09T04:18:38;3.95;;;1.30;;
70547;SDS011;58099;43.406;3.698;2022-07-09T04:21:07;3.70;;;1.50;;
70547;SDS011;58099;43.406;3.698;2022-07-09T04:23:34;5.15;;;1.17;;
70547;SDS011;58099;43.406;3.698;2022-07-09T04:26:00;3.60;;;1.50;;
70547;SDS011;58099;43.406;3.698;2022-07-09T04:28:25;5.50;;;1.40;;
70547;SDS011;58099;43.406;3.698;2022-07-09T04:30:52;3.50;;;1.25;;
70547;SDS011;58099;43.406;3.698;2022-07-09T04:33:17;3.58;;;1.30;;
70547;SDS011;58099;43.406;3.698;2022-07-09T04:35:43;3.63;;;1.30;;
70547;SDS011;58099;43.406;3.698;2022-07-09T04:38:11;4.00;;;1.13;;
70547;SDS011;58099;43.406;3.698;2022-07-09T04:40:37;3.60;;;1.10;;
70547;SDS011;58099;43.406;3.698;2022-07-09T04:43:04;4.25;;;1.45;;
70547;SDS011;58099;43.406;3.698;2022-07-09T04:45:30;6.32;;;1.80;;
70547;SDS011;58099;43.406;3.698;2022-07-09T04:47:59;3.45;;;1.00;;
70547;SDS011;58099;43.406;3.698;2022-07-09T04:50:26;3.80;;;1.38;;
70547;SDS011;58099;43.406;3.698;2022-07-09T04:52:52;4.15;;;1.60;;
70547;SDS011;58099;43.406;3.698;2022-07-09T04:55:18;3.60;;;1.30;;
70547;SDS011;58099;43.406;3.698;2022-07-09T04:57:46;4.57;;;1.23;;
70547;SDS011;58099;43.406;3.698;2022-07-09T05:00:12;6.40;;;1.52;;
70547;SDS011;58099;43.406;3.698;2022-07-09T05:02:38;4.43;;;1.20;;
70547;SDS011;58099;43.406;3.698;2022-07-09T05:05:05;3.72;;;1.23;;
70547;SDS011;58099;43.406;3.698;2022-07-09T05:07:32;3.20;;;1.20;;
70547;SDS011;58099;43.406;3.698;2022-07-09T05:09:58;6.07;;;1.42;;
70547;SDS011;58099;43.406;3.698;2022-07-09T05:12:26;4.78;;;1.20;;
70547;SDS011;58099;43.406;3.698;2022-07-09T05:14:52;3.60;;;1.20;;
70547;SDS011;58099;43.406;3.698;2022-07-09T05:17:18;3.87;;;1.20;;
70547;SDS011;58099;43.406;3.698;2022-07-09T05:19:44;4.07;;;1.08;;
70547;SDS011;58099;43.406;3.698;2022-07-09T05:22:09;4.15;;;1.30;;
70547;SDS011;58099;43.406;3.698;2022-07-09T05:24:35;4.65;;;1.40;;
70547;SDS011;58099;43.406;3.698;2022-07-09T05:27:01;5.63;;;1.60;;
70547;SDS011;58099;43.406;3.698;2022-07-09T05:29:28;4.75;;;1.50;;
70547;SDS011;58099;43.406;3.698;2022-07-09T05:31:54;4.57;;;1.33;;
70547;SDS011;58099;43.406;3.698;2022-07-09T05:34:22;4.10;;;1.67;;
70547;SDS011;58099;43.406;3.698;2022-07-09T05:36:48;4.27;;;1.30;;
70547;SDS011;58099;43.406;3.698;2022-07-09T05:39:16;5.95;;;1.40;;
70547;SDS011;58099;43.406;3.698;2022-07-09T05:41:42;3.63;;;1.35;;
70547;SDS011;58099;43.406;3.698;2022-07-09T05:44:09;4.53;;;1.15;;
70547;SDS011;58099;43.406;3.698;2022-07-09T05:46:35;3.88;;;1.05;;
70547;SDS011;58099;43.406;3.698;2022-07-09T05:49:01;2.93;;;0.70;;
70547;SDS011;58099;43.406;3.698;2022-07-09T05:51:27;3.05;;;0.98;;
70547;SDS011;58099;43.406;3.698;2022-07-09T05:53:53;4.78;;;1.23;;
70547;SDS011;58099;43.406;3.698;2022-07-09T05:56:18;5.20;;;1.00;;
70547;SDS011;58099;43.406;3.698;2022-07-09T05:58:45;5.28;;;1.73;;
70547;SDS011;58099;43.406;3.698;2022-07-09T06:01:11;4.32;;;1.23;;
70547;SDS011;58099;43.406;3.698;2022-07-09T06:03:38;4.50;;;1.50;;
70547;SDS011;58099;43.406;3.698;2022-07-09T06:06:04;5.90;;;1.23;;
70547;SDS011;58099;43.406;3.698;2022-07-09T06:08:30;4.68;;;1.20;;
70547;SDS011;58099;43.406;3.698;2022-07-09T06:10:57;3.70;;;1.27;;
70547;SDS011;58099;43.406;3.698;2022-07-09T06:13:23;4.35;;;1.15;;
70547;SDS011;58099;43.406;3.698;2022-07-09T06:15:48;4.25;;;1.00;;
70547;SDS011;58099;43.406;3.698;2022-07-09T06:18:14;3.97;;;1.30;;
70547;SDS011;58099;43.406;3.698;2022-07-09T06:20:40;5.30;;;1.55;;
70547;SDS011;58099;43.406;3.698;2022-07-09T06:23:06;4.90;;;1.27;;
70547;SDS011;58099;43.406;3.698;2022-07-09T06:25:33;3.85;;;1.20;;
70547;SDS011;58099;43.406;3.698;2022-07-09T06:27:59;3.80;;;1.10;;
70547;SDS011;58099;43.406;3.698;2022-07-09T06:30:25;4.22;;;1.13;;
70547;SDS011;58099;43.406;3.698;2022-07-09T06:32:53;3.20;;;0.80;;
70547;SDS011;58099;43.406;3.698;2022-07-09T06:35:19;3.90;;;1.13;;
70547;SDS011;58099;43.406;3.698;2022-07-09T06:37:48;3.42;;;1.20;;
70547;SDS011;58099;43.406;3.698;2022-07-09T06:40:14;4.38;;;1.00;;
70547;SDS011;58099;43.406;3.698;2022-07-09T06:42:40;3.60;;;1.20;;
70547;SDS011;58099;43.406;3.698;2022-07-09T06:45:06;3.75;;;1.45;;
70547;SDS011;58099;43.406;3.698;2022-07-09T06:47:32;4.55;;;1.50;;
70547;SDS011;58099;43.406;3.698;2022-07-09T06:49:58;3.78;;;1.15;;
70547;SDS011;58099;43.406;3.698;2022-07-09T06:52:24;3.77;;;1.10;;
70547;SDS011;58099;43.406;3.698;2022-07-09T06:54:50;4.15;;;1.08;;
70547;SDS011;58099;43.406;3.698;2022-07-09T06:57:16;4.00;;;1.13;;
70547;SDS011;58099;43.406;3.698;2022-07-09T06:59:42;3.60;;;1.20;;
70547;SDS011;58099;43.406;3.698;2022-07-09T07:02:10;4.72;;;1.20;;
70547;SDS011;58099;43.406;3.698;2022-07-09T07:04:36;3.72;;;1.27;;
70547;SDS011;58099;43.406;3.698;2022-07-09T07:07:02;3.93;;;1.40;;
70547;SDS011;58099;43.406;3.698;2022-07-09T07:09:29;3.95;;;1.45;;
70547;SDS011;58099;43.406;3.698;2022-07-09T07:11:55;3.97;;;1.25;;
70547;SDS011;58099;43.406;3.698;2022-07-09T07:14:21;5.32;;;1.95;;
70547;SDS011;58099;43.406;3.698;2022-07-09T07:16:47;6.05;;;1.50;;
70547;SDS011;58099;43.406;3.698;2022-07-09T07:19:13;5.73;;;1.50;;
70547;SDS011;58099;43.406;3.698;2022-07-09T07:21:39;7.53;;;1.85;;
70547;SDS011;58099;43.406;3.698;2022-07-09T07:24:05;5.97;;;1.73;;
70547;SDS011;58099;43.406;3.698;2022-07-09T07:26:31;4.68;;;1.52;;
70547;SDS011;58099;43.406;3.698;2022-07-09T07:28:57;6.53;;;1.70;;
70547;SDS011;58099;43.406;3.698;2022-07-09T07:31:23;4.35;;;1.40;;
70547;SDS011;58099;43.406;3.698;2022-07-09T07:33:50;4.35;;;1.80;;
70547;SDS011;58099;43.406;3.698;2022-07-09T07:36:16;4.87;;;2.30;;
70547;SDS011;58099;43.406;3.698;2022-07-09T07:38:42;6.72;;;1.95;;
70547;SDS011;58099;43.406;3.698;2022-07-09T07:41:10;5.53;;;1.55;;
70547;SDS011;58099;43.406;3.698;2022-07-09T07:43:35;6.32;;;1.60;;
70547;SDS011;58099;43.406;3.698;2022-07-09T07:46:01;5.50;;;1.80;;
70547;SDS011;58099;43.406;3.698;2022-07-09T07:48:27;4.23;;;1.93;;
70547;SDS011;58099;43.406;3.698;2022-07-09T07:50:53;4.38;;;1.70;;
70547;SDS011;58099;43.406;3.698;2022-07-09T07:53:19;5.85;;;1.75;;
70547;SDS011;58099;43.406;3.698;2022-07-09T07:55:45;5.30;;;1.40;;
70547;SDS011;58099;43.406;3.698;2022-07-09T07:58:11;6.57;;;1.77;;
70547;SDS011;58099;43.406;3.698;2022-07-09T08:00:37;6.15;;;1.38;;
70547;SDS011;58099;43.406;3.698;2022-07-09T08:03:03;6.15;;;2.00;;
70547;SDS011;58099;43.406;3.698;2022-07-09T08:05:29;8.50;;;2.33;;
70547;SDS011;58099;43.406;3.698;2022-07-09T08:07:55;7.32;;;1.60;;
70547;SDS011;58099;43.406;3.698;2022-07-09T08:10:21;4.63;;;2.00;;
70547;SDS011;58099;43.406;3.698;2022-07-09T08:12:47;4.63;;;1.50;;
70547;SDS011;58099;43.406;3.698;2022-07-09T08:15:12;5.82;;;2.20;;
70547;SDS011;58099;43.406;3.698;2022-07-09T08:17:38;4.17;;;1.63;;
70547;SDS011;58099;43.406;3.698;2022-07-09T08:20:04;4.00;;;1.80;;
70547;SDS011;58099;43.406;3.698;2022-07-09T08:22:30;6.13;;;2.08;;
70547;SDS011;58099;43.406;3.698;2022-07-09T08:24:56;3.63;;;1.57;;
70547;SDS011;58099;43.406;3.698;2022-07-09T08:27:22;5.45;;;1.83;;
70547;SDS011;58099;43.406;3.698;2022-07-09T08:29:48;4.37;;;1.50;;
70547;SDS011;58099;43.406;3.698;2022-07-09T08:32:14;5.65;;;1.95;;
70547;SDS011;58099;43.406;3.698;2022-07-09T08:34:40;5.45;;;1.73;;
70547;SDS011;58099;43.406;3.698;2022-07-09T08:37:06;5.25;;;1.48;;
70547;SDS011;58099;43.406;3.698;2022-07-09T08:39:32;4.77;;;1.87;;
70547;SDS011;58099;43.406;3.698;2022-07-09T08:41:58;4.57;;;1.98;;
70547;SDS011;58099;43.406;3.698;2022-07-09T08:44:31;4.20;;;1.90;;
70547;SDS011;58099;43.406;3.698;2022-07-09T08:47:00;5.57;;;2.25;;
70547;SDS011;58099;43.406;3.698;2022-07-09T08:49:26;5.75;;;1.95;;
70547;SDS011;58099;43.406;3.698;2022-07-09T08:51:53;4.75;;;2.30;;
70547;SDS011;58099;43.406;3.698;2022-07-09T08:54:21;3.90;;;2.03;;
70547;SDS011;58099;43.406;3.698;2022-07-09T08:56:49;3.70;;;1.50;;
70547;SDS011;58099;43.406;3.698;2022-07-09T08:59:16;4.95;;;2.05;;
70547;SDS011;58099;43.406;3.698;2022-07-09T09:01:41;5.00;;;2.08;;
70547;SDS011;58099;43.406;3.698;2022-07-09T09:04:08;3.80;;;1.60;;
70547;SDS011;58099;43.406;3.698;2022-07-09T09:06:37;5.20;;;2.40;;
70547;SDS011;58099;43.406;3.698;2022-07-09T09:09:06;6.32;;;2.10;;
70547;SDS011;58099;43.406;3.698;2022-07-09T09:11:33;5.20;;;2.42;;
70547;SDS011;58099;43.406;3.698;2022-07-09T09:14:01;4.20;;;1.73;;
70547;SDS011;58099;43.406;3.698;2022-07-09T09:16:28;5.07;;;2.47;;
70547;SDS011;58099;43.406;3.698;2022-07-09T09:18:54;5.15;;;2.17;;
70547;SDS011;58099;43.406;3.698;2022-07-09T09:21:23;3.60;;;1.92;;
70547;SDS011;58099;43.406;3.698;2022-07-09T09:23:50;3.90;;;2.25;;
70547;SDS011;58099;43.406;3.698;2022-07-09T09:28:46;4.00;;;2.00;;
70547;SDS011;58099;43.406;3.698;2022-07-09T09:31:45;4.03;;;2.47;;
70547;SDS011;58099;43.406;3.698;2022-07-09T09:36:40;4.38;;;2.05;;
70547;SDS011;58099;43.406;3.698;2022-07-09T09:39:31;4.83;;;1.80;;
70547;SDS011;58099;43.406;3.698;2022-07-09T09:41:57;4.00;;;2.00;;
70547;SDS011;58099;43.406;3.698;2022-07-09T09:44:33;4.82;;;1.77;;
70547;SDS011;58099;43.406;3.698;2022-07-09T09:47:06;5.40;;;1.90;;
70547;SDS011;58099;43.406;3.698;2022-07-09T09:49:32;5.32;;;1.88;;
70547;SDS011;58099;43.406;3.698;2022-07-09T09:52:08;4.67;;;1.83;;
70547;SDS011;58099;43.406;3.698;2022-07-09T09:54:36;5.15;;;1.90;;
70547;SDS011;58099;43.406;3.698;2022-07-09T09:57:06;4.35;;;1.80;;
70547;SDS011;58099;43.406;3.698;2022-07-09T09:59:38;4.82;;;1.95;;
70547;SDS011;58099;43.406;3.698;2022-07-09T10:02:05;4.38;;;1.80;;
70547;SDS011;58099;43.406;3.698;2022-07-09T10:04:31;5.20;;;2.10;;
70547;SDS011;58099;43.406;3.698;2022-07-09T10:06:58;6.75;;;2.10;;
70547;SDS011;58099;43.406;3.698;2022-07-09T10:09:24;5.38;;;2.15;;
70547;SDS011;58099;43.406;3.698;2022-07-09T10:11:49;4.70;;;1.77;;
70547;SDS011;58099;43.406;3.698;2022-07-09T10:14:16;5.07;;;2.40;;
70547;SDS011;58099;43.406;3.698;2022-07-09T10:16:53;5.20;;;2.63;;
70547;SDS011;58099;43.406;3.698;2022-07-09T10:19:23;5.88;;;1.83;;
70547;SDS011;58099;43.406;3.698;2022-07-09T10:21:54;5.57;;;1.80;;
70547;SDS011;58099;43.406;3.698;2022-07-09T10:24:25;4.67;;;2.00;;
70547;SDS011;58099;43.406;3.698;2022-07-09T10:27:08;5.22;;;1.73;;
70547;SDS011;58099;43.406;3.698;2022-07-09T10:29:36;5.25;;;2.33;;
70547;SDS011;58099;43.406;3.698;2022-07-09T10:32:29;4.95;;;2.03;;
70547;SDS011;58099;43.406;3.698;2022-07-09T10:34:57;6.25;;;1.90;;
70547;SDS011;58099;43.406;3.698;2022-07-09T10:37:40;4.83;;;1.80;;
70547;SDS011;58099;43.406;3.698;2022-07-09T10:40:11;4.88;;;2.10;;
70547;SDS011;58099;43.406;3.698;2022-07-09T10:42:37;7.38;;;2.40;;
70547;SDS011;58099;43.406;3.698;2022-07-09T10:45:14;5.15;;;2.03;;
70547;SDS011;58099;43.406;3.698;2022-07-09T10:47:43;4.32;;;2.20;;
70547;SDS011;58099;43.406;3.698;2022-07-09T10:50:12;5.20;;;1.93;;
70547;SDS011;58099;43.406;3.698;2022-07-09T10:52:38;4.85;;;1.65;;
70547;SDS011;58099;43.406;3.698;2022-07-09T10:55:04;5.47;;;1.80;;
70547;SDS011;58099;43.406;3.698;2022-07-09T10:57:30;4.30;;;1.90;;
70547;SDS011;58099;43.406;3.698;2022-07-09T10:59:56;4.50;;;2.17;;
70547;SDS011;58099;43.406;3.698;2022-07-09T11:02:22;5.78;;;2.55;;
70547;SDS011;58099;43.406;3.698;2022-07-09T11:04:51;5.10;;;1.90;;
70547;SDS011;58099;43.406;3.698;2022-07-09T11:07:24;4.97;;;1.60;;
70547;SDS011;58099;43.406;3.698;2022-07-09T11:09:51;5.18;;;1.92;;
70547;SDS011;58099;43.406;3.698;2022-07-09T11:12:17;5.50;;;2.03;;
70547;SDS011;58099;43.406;3.698;2022-07-09T11:14:48;3.75;;;1.95;;
70547;SDS011;58099;43.406;3.698;2022-07-09T11:17:15;4.07;;;1.70;;
70547;SDS011;58099;43.406;3.698;2022-07-09T11:19:42;5.30;;;1.80;;
70547;SDS011;58099;43.406;3.698;2022-07-09T11:22:09;4.07;;;2.00;;
70547;SDS011;58099;43.406;3.698;2022-07-09T11:24:34;5.43;;;1.80;;
70547;SDS011;58099;43.406;3.698;2022-07-09T11:27:07;4.20;;;1.97;;
70547;SDS011;58099;43.406;3.698;2022-07-09T11:29:35;6.25;;;2.10;;
70547;SDS011;58099;43.406;3.698;2022-07-09T11:32:02;5.03;;;2.05;;
70547;SDS011;58099;43.406;3.698;2022-07-09T11:34:28;4.80;;;1.77;;
70547;SDS011;58099;43.406;3.698;2022-07-09T11:36:55;7.63;;;2.20;;
70547;SDS011;58099;43.406;3.698;2022-07-09T11:41:53;3.90;;;1.77;;
70547;SDS011;58099;43.406;3.698;2022-07-09T11:47:01;5.53;;;2.47;;
70547;SDS011;58099;43.406;3.698;2022-07-09T11:49:38;4.63;;;2.20;;
70547;SDS011;58099;43.406;3.698;2022-07-09T11:55:01;5.32;;;2.08;;
70547;SDS011;58099;43.406;3.698;2022-07-09T11:57:29;4.68;;;2.15;;
70547;SDS011;58099;43.406;3.698;2022-07-09T11:59:56;5.03;;;2.05;;
70547;SDS011;58099;43.406;3.698;2022-07-09T12:02:29;4.32;;;1.92;;
70547;SDS011;58099;43.406;3.698;2022-07-09T12:05:03;4.30;;;2.30;;
70547;SDS011;58099;43.406;3.698;2022-07-09T12:07:31;4.45;;;1.77;;
70547;SDS011;58099;43.406;3.698;2022-07-09T12:10:00;3.72;;;1.90;;
70547;SDS011;58099;43.406;3.698;2022-07-09T12:12:30;4.82;;;2.10;;
70547;SDS011;58099;43.406;3.698;2022-07-09T12:14:57;5.88;;;1.45;;
70547;SDS011;58099;43.406;3.698;2022-07-09T12:17:26;4.80;;;2.17;;
70547;SDS011;58099;43.406;3.698;2022-07-09T12:19:53;4.75;;;1.95;;
70547;SDS011;58099;43.406;3.698;2022-07-09T12:22:20;5.35;;;2.00;;
70547;SDS011;58099;43.406;3.698;2022-07-09T12:24:46;4.75;;;1.70;;
70547;SDS011;58099;43.406;3.698;2022-07-09T12:27:12;4.03;;;1.92;;
70547;SDS011;58099;43.406;3.698;2022-07-09T12:29:38;5.60;;;1.80;;
70547;SDS011;58099;43.406;3.698;2022-07-09T12:32:04;4.63;;;2.33;;
70547;SDS011;58099;43.406;3.698;2022-07-09T12:34:30;4.20;;;1.98;;
70547;SDS011;58099;43.406;3.698;2022-07-09T12:36:56;4.07;;;1.80;;
70547;SDS011;58099;43.406;3.698;2022-07-09T12:39:22;5.78;;;1.80;;
70547;SDS011;58099;43.406;3.698;2022-07-09T12:41:48;4.27;;;1.60;;
70547;SDS011;58099;43.406;3.698;2022-07-09T12:44:13;5.28;;;1.90;;
70547;SDS011;58099;43.406;3.698;2022-07-09T12:46:39;4.40;;;1.90;;
70547;SDS011;58099;43.406;3.698;2022-07-09T12:49:06;4.57;;;2.20;;
70547;SDS011;58099;43.406;3.698;2022-07-09T12:51:34;4.05;;;2.13;;
70547;SDS011;58099;43.406;3.698;2022-07-09T12:54:00;4.82;;;1.40;;
70547;SDS011;58099;43.406;3.698;2022-07-09T12:56:26;4.50;;;1.58;;
70547;SDS011;58099;43.406;3.698;2022-07-09T12:58:52;4.10;;;1.77;;
70547;SDS011;58099;43.406;3.698;2022-07-09T13:01:18;4.47;;;1.98;;
70547;SDS011;58099;43.406;3.698;2022-07-09T13:03:44;3.97;;;1.83;;
70547;SDS011;58099;43.406;3.698;2022-07-09T13:06:09;5.40;;;1.90;;
70547;SDS011;58099;43.406;3.698;2022-07-09T13:08:59;4.57;;;1.80;;
70547;SDS011;58099;43.406;3.698;2022-07-09T13:11:25;4.00;;;1.60;;
70547;SDS011;58099;43.406;3.698;2022-07-09T13:13:51;4.97;;;1.95;;
70547;SDS011;58099;43.406;3.698;2022-07-09T13:16:17;3.80;;;1.73;;
70547;SDS011;58099;43.406;3.698;2022-07-09T13:18:43;3.40;;;1.70;;
70547;SDS011;58099;43.406;3.698;2022-07-09T13:21:08;4.30;;;2.23;;
70547;SDS011;58099;43.406;3.698;2022-07-09T13:23:34;5.13;;;2.05;;
70547;SDS011;58099;43.406;3.698;2022-07-09T13:26:00;4.85;;;1.65;;
70547;SDS011;58099;43.406;3.698;2022-07-09T13:28:26;4.20;;;1.50;;
70547;SDS011;58099;43.406;3.698;2022-07-09T13:30:52;3.65;;;1.75;;
70547;SDS011;58099;43.406;3.698;2022-07-09T13:33:18;4.32;;;1.90;;
70547;SDS011;58099;43.406;3.698;2022-07-09T13:35:43;3.90;;;1.33;;
70547;SDS011;58099;43.406;3.698;2022-07-09T13:38:09;4.25;;;1.63;;
70547;SDS011;58099;43.406;3.698;2022-07-09T13:40:35;3.93;;;1.30;;
70547;SDS011;58099;43.406;3.698;2022-07-09T13:43:01;4.90;;;1.85;;
70547;SDS011;58099;43.406;3.698;2022-07-09T13:45:26;4.90;;;2.10;;
70547;SDS011;58099;43.406;3.698;2022-07-09T13:47:53;5.28;;;1.98;;
70547;SDS011;58099;43.406;3.698;2022-07-09T13:50:19;4.00;;;1.80;;
70547;SDS011;58099;43.406;3.698;2022-07-09T13:52:45;4.32;;;1.92;;
70547;SDS011;58099;43.406;3.698;2022-07-09T13:55:11;4.57;;;2.00;;
70547;SDS011;58099;43.406;3.698;2022-07-09T13:57:38;4.57;;;1.88;;
70547;SDS011;58099;43.406;3.698;2022-07-09T14:00:04;4.00;;;1.65;;
70547;SDS011;58099;43.406;3.698;2022-07-09T14:02:31;3.65;;;1.90;;
70547;SDS011;58099;43.406;3.698;2022-07-09T14:04:58;4.47;;;1.80;;
70547;SDS011;58099;43.406;3.698;2022-07-09T14:07:25;4.60;;;2.10;;
70547;SDS011;58099;43.406;3.698;2022-07-09T14:09:50;5.10;;;1.60;;
70547;SDS011;58099;43.406;3.698;2022-07-09T14:12:16;3.77;;;1.80;;
70547;SDS011;58099;43.406;3.698;2022-07-09T14:14:43;4.88;;;1.55;;
70547;SDS011;58099;43.406;3.698;2022-07-09T14:17:10;4.43;;;1.85;;
70547;SDS011;58099;43.406;3.698;2022-07-09T14:19:36;5.57;;;1.88;;
70547;SDS011;58099;43.406;3.698;2022-07-09T14:22:03;4.57;;;1.70;;
70547;SDS011;58099;43.406;3.698;2022-07-09T14:24:28;5.03;;;1.77;;
70547;SDS011;58099;43.406;3.698;2022-07-09T14:26:54;5.13;;;1.33;;
70547;SDS011;58099;43.406;3.698;2022-07-09T14:29:20;4.70;;;1.83;;
70547;SDS011;58099;43.406;3.698;2022-07-09T14:31:46;3.75;;;1.25;;
70547;SDS011;58099;43.406;3.698;2022-07-09T14:34:12;3.47;;;1.23;;
70547;SDS011;58099;43.406;3.698;2022-07-09T14:36:37;4.00;;;1.58;;
70547;SDS011;58099;43.406;3.698;2022-07-09T14:39:03;4.60;;;1.57;;
70547;SDS011;58099;43.406;3.698;2022-07-09T14:41:30;4.15;;;1.60;;
70547;SDS011;58099;43.406;3.698;2022-07-09T14:43:56;5.15;;;1.70;;
70547;SDS011;58099;43.406;3.698;2022-07-09T14:46:22;4.60;;;2.00;;
70547;SDS011;58099;43.406;3.698;2022-07-09T14:48:48;3.90;;;2.05;;
70547;SDS011;58099;43.406;3.698;2022-07-09T14:51:14;5.50;;;1.98;;
70547;SDS011;58099;43.406;3.698;2022-07-09T14:53:40;4.80;;;1.63;;
70547;SDS011;58099;43.406;3.698;2022-07-09T14:56:06;5.43;;;1.67;;
70547;SDS011;58099;43.406;3.698;2022-07-09T14:58:31;6.32;;;1.83;;